Time;durP1;ratioP1;P1;durP2;ratioP2;P2;SDS_P1;SDS_P2;PMS_P1;PMS_P2;Temp;Humidity;BMP_temperature;BMP_pressure;BME280_temperature;BME280_humidity;BME280_pressure;Samples;Min_cycle;Max_cycle;Signal;HPM_P1;HPM_P2
2023/09/05 00:03:09;;;;;;;2.40;1.27;;;;;;;16.53;58.58;98786.34;10390051;28;20049;-75
2023/09/05 00:08:31;;;;;;;3.40;1.38;;;;;;;16.52;58.56;98792.59;10405149;28;20041;-75
2023/09/05 00:13:51;;;;;;;6.85;1.23;;;;;;;16.47;58.88;98780.34;10409446;28;20481;-75
2023/09/05 00:19:13;;;;;;;1.70;1.00;;;;;;;16.44;59.00;98794.94;10376042;28;20044;-74
2023/09/05 00:24:36;;;;;;;4.07;1.25;;;;;;;16.43;58.85;98793.47;10402887;28;20049;-74
2023/09/05 00:29:57;;;;;;;2.13;0.90;;;;;;;16.40;58.94;98791.84;10375996;28;20135;-73
2023/09/05 00:35:18;;;;;;;2.58;1.20;;;;;;;16.36;58.94;98786.72;10388946;28;20495;-74
2023/09/05 00:40:38;;;;;;;2.67;1.38;;;;;;;16.35;59.09;98778.88;10388926;28;20120;-75
2023/09/05 00:45:59;;;;;;;3.72;1.20;;;;;;;16.31;59.42;98776.56;10374600;28;20061;-73
2023/09/05 00:51:21;;;;;;;6.78;1.02;;;;;;;16.29;59.54;98771.50;10374468;28;20505;-73
2023/09/05 00:56:41;;;;;;;2.83;1.02;;;;;;;16.26;59.36;98774.81;10387919;28;20045;-74
2023/09/05 01:02:02;;;;;;;3.03;1.02;;;;;;;16.21;59.61;98768.22;10387224;28;20415;-73
2023/09/05 01:07:29;;;;;;;5.00;1.30;;;;;;;16.14;59.63;98769.16;10386989;28;20071;-73
2023/09/05 01:12:50;;;;;;;3.20;1.02;;;;;;;16.02;59.89;98766.34;10400981;28;20128;-75
2023/09/05 01:18:10;;;;;;;1.63;0.90;;;;;;;15.85;60.36;98751.84;10387322;28;20064;-73
2023/09/05 01:23:37;;;;;;;2.33;0.90;;;;;;;15.76;60.67;98749.88;10428232;28;20095;-73
2023/09/05 01:28:59;;;;;;;1.85;1.00;;;;;;;15.65;61.06;98745.69;10428589;28;20048;-74
2023/09/05 01:34:19;;;;;;;2.83;1.10;;;;;;;15.51;61.28;98753.19;10428180;28;20045;-73
2023/09/05 01:39:41;;;;;;;2.90;1.02;;;;;;;15.40;61.71;98758.16;10441519;28;20115;-73
2023/09/05 01:45:02;;;;;;;4.60;1.20;;;;;;;15.25;61.85;98750.16;10439623;28;20494;-74
2023/09/05 01:50:23;;;;;;;3.75;1.17;;;;;;;15.18;62.18;98740.56;10454608;28;20474;-74
2023/09/05 01:55:44;;;;;;;2.28;1.20;;;;;;;15.14;62.65;98739.56;10440517;28;20072;-73
2023/09/05 02:01:04;;;;;;;4.05;0.85;;;;;;;15.07;62.62;98741.25;10410400;28;20064;-73
2023/09/05 02:06:25;;;;;;;6.28;1.20;;;;;;;14.98;62.93;98739.25;10412663;28;20056;-73
2023/09/05 02:11:47;;;;;;;2.55;1.17;;;;;;;14.91;62.99;98731.75;10393570;28;20515;-73
2023/09/05 02:17:08;;;;;;;3.17;1.20;;;;;;;14.86;63.12;98736.38;10412301;28;20451;-73
2023/09/05 02:22:28;;;;;;;3.80;0.98;;;;;;;14.78;63.75;98730.19;10414487;28;20491;-73
2023/09/05 02:27:49;;;;;;;3.25;1.23;;;;;;;14.74;63.93;98746.03;10414524;28;20124;-74
2023/09/05 02:33:10;;;;;;;2.28;1.00;;;;;;;14.72;64.18;98748.72;10423190;28;20095;-72
2023/09/05 02:45:56;;;;;;;3.08;1.45;;;;;;;14.53;64.80;98743.94;10440424;28;20057;-73
2023/09/05 02:51:30;;;;;;;4.05;1.30;;;;;;;14.45;65.18;98740.59;10412314;28;20076;-73
2023/09/05 02:56:55;;;;;;;3.15;1.58;;;;;;;14.39;65.51;98735.28;10420129;28;20057;-73
2023/09/05 03:02:16;;;;;;;3.15;1.27;;;;;;;14.35;65.67;98725.81;10405180;28;20061;-73
2023/09/05 03:07:37;;;;;;;5.55;1.90;;;;;;;14.28;65.87;98727.47;10380553;28;20087;-74
2023/09/05 03:12:58;;;;;;;2.55;1.60;;;;;;;14.22;66.38;98727.06;10376748;28;20057;-73
2023/09/05 03:18:19;;;;;;;3.22;1.70;;;;;;;14.15;66.26;98739.94;10405668;28;20495;-73
2023/09/05 03:23:40;;;;;;;5.30;1.90;;;;;;;14.01;66.57;98734.09;10377687;28;20072;-73
2023/09/05 03:29:01;;;;;;;3.97;1.85;;;;;;;13.87;67.41;98738.69;10376791;28;20037;-72
2023/09/05 03:34:24;;;;;;;4.03;1.80;;;;;;;13.83;67.43;98735.63;10391391;28;20476;-73
2023/09/05 03:39:50;;;;;;;8.93;2.10;;;;;;;13.78;67.69;98731.03;10387521;28;20065;-73
2023/09/05 03:45:14;;;;;;;3.13;1.70;;;;;;;13.77;68.10;98726.03;10390324;28;20112;-73
2023/09/05 03:50:35;;;;;;;4.10;2.28;;;;;;;13.80;68.28;98725.59;10403386;28;20069;-73
2023/09/05 03:55:56;;;;;;;5.75;2.28;;;;;;;13.76;68.62;98730.91;10392977;28;20495;-74
2023/09/05 04:01:16;;;;;;;3.47;1.90;;;;;;;13.72;68.68;98733.44;10377174;28;20480;-75
2023/09/05 04:06:38;;;;;;;4.95;2.20;;;;;;;13.65;68.93;98742.75;10409099;28;20556;-73
2023/09/05 04:11:59;;;;;;;4.55;2.05;;;;;;;13.58;69.18;98735.94;10424799;28;20096;-73
2023/09/05 04:17:19;;;;;;;4.00;2.15;;;;;;;13.51;69.42;98748.06;10436692;28;20045;-73
2023/09/05 04:22:40;;;;;;;2.78;1.90;;;;;;;13.44;69.70;98746.91;10442856;28;20073;-73
2023/09/05 04:28:01;;;;;;;4.00;2.08;;;;;;;13.46;70.23;98738.63;10442413;28;20071;-74
2023/09/05 04:33:31;;;;;;;4.72;2.33;;;;;;;13.58;70.15;98746.44;10431319;28;20076;-75
2023/09/05 04:38:53;;;;;;;4.00;2.28;;;;;;;13.66;70.09;98744.22;10431425;28;20041;-73
2023/09/05 04:44:14;;;;;;;6.03;2.85;;;;;;;13.76;70.47;98747.72;10443698;28;20372;-74
2023/09/05 04:49:35;;;;;;;6.18;2.47;;;;;;;13.94;70.63;98749.03;10463064;28;20076;-75
2023/09/05 04:54:57;;;;;;;6.75;2.85;;;;;;;14.49;70.39;98768.97;10448307;28;20046;-75
2023/09/05 05:00:18;;;;;;;4.78;2.33;;;;;;;15.09;70.41;98757.50;10434815;28;20159;-76
2023/09/05 05:05:39;;;;;;;3.58;2.17;;;;;;;15.84;69.81;98753.94;10415574;28;20057;-75
2023/09/05 05:11:04;;;;;;;4.85;2.38;;;;;;;16.63;68.97;98746.78;10393482;28;20049;-74
2023/09/05 05:16:25;;;;;;;5.15;2.72;;;;;;;19.52;66.56;98744.69;10374284;28;20065;-78
2023/09/05 05:21:46;;;;;;;4.05;2.63;;;;;;;25.95;58.01;98734.09;10400966;28;20065;-75
2023/09/05 05:27:06;;;;;;;3.90;2.42;;;;;;;29.89;50.58;98752.78;10383511;28;20121;-76
2023/09/05 05:32:27;;;;;;;6.97;2.35;;;;;;;32.72;42.53;98741.56;10369827;28;20124;-76
2023/09/05 05:37:48;;;;;;;5.40;2.45;;;;;;;35.03;35.74;98748.75;10444866;28;20134;-75
2023/09/05 05:43:09;;;;;;;4.68;2.70;;;;;;;36.83;30.74;98749.16;10412736;28;20124;-77
2023/09/05 05:48:30;;;;;;;5.47;2.60;;;;;;;38.21;27.60;98750.81;10382195;28;20069;-77
2023/09/05 05:53:51;;;;;;;5.32;2.10;;;;;;;39.52;23.77;98757.09;10402980;28;20068;-79
2023/09/05 05:59:11;;;;;;;4.78;2.97;;;;;;;40.92;21.84;98765.97;10394220;28;20116;-80
2023/09/05 06:04:32;;;;;;;3.97;1.70;;;;;;;42.10;19.52;98769.22;10407398;28;20081;-80
2023/09/05 06:09:53;;;;;;;2.70;1.48;;;;;;;42.72;17.99;98759.09;10400994;28;20201;-80
2023/09/05 06:15:14;;;;;;;2.47;1.20;;;;;;;43.30;15.90;98740.88;10379896;28;20072;-80
2023/09/05 06:20:34;;;;;;;3.15;1.48;;;;;;;45.13;14.56;98756.25;10379510;28;20125;-79
2023/09/05 06:25:55;;;;;;;2.42;1.52;;;;;;;47.29;13.31;98743.72;10396880;28;20143;-80
2023/09/05 06:31:16;;;;;;;3.58;1.30;;;;;;;48.95;10.46;98740.28;10415447;28;20094;-79
2023/09/05 06:36:37;;;;;;;2.92;1.63;;;;;;;51.20;8.88;98744.28;10411162;28;20055;-78
2023/09/05 06:42:01;;;;;;;2.13;1.00;;;;;;;53.17;7.88;98738.94;10424147;28;20120;-80
2023/09/05 06:47:30;;;;;;;1.80;0.90;;;;;;;54.35;7.03;98732.41;10421688;28;20509;-78
2023/09/05 06:52:52;;;;;;;2.60;0.85;;;;;;;54.90;6.33;98733.69;10420075;28;20053;-79
2023/09/05 06:58:13;;;;;;;3.25;0.90;;;;;;;53.78;6.53;98726.63;10433349;28;20427;-79
2023/09/05 07:03:34;;;;;;;2.35;0.95;;;;;;;54.29;6.54;98731.41;10417847;28;20140;-75
2023/09/05 07:08:55;;;;;;;4.18;2.00;;;;;;;54.30;5.94;98726.13;10411435;28;20077;-76
2023/09/05 07:14:16;;;;;;;3.33;1.17;;;;;;;52.94;6.45;98724.00;10438908;28;20112;-77
2023/09/05 07:19:37;;;;;;;2.35;0.85;;;;;;;53.04;6.45;98726.72;10404143;28;20068;-78
2023/09/05 07:24:58;;;;;;;2.03;0.90;;;;;;;51.52;6.81;98738.56;10377189;28;20049;-77
2023/09/05 07:30:19;;;;;;;2.65;1.10;;;;;;;51.56;6.81;98724.94;10404281;28;20140;-75
2023/09/05 07:35:40;;;;;;;2.60;1.33;;;;;;;52.99;6.57;98725.00;10411492;28;20433;-77
2023/09/05 07:41:04;;;;;;;2.47;1.40;;;;;;;52.24;6.47;98735.44;10452612;28;20479;-77
2023/09/05 07:46:25;;;;;;;3.15;1.00;;;;;;;52.03;6.35;98736.50;10437834;28;20120;-76
2023/09/05 07:51:47;;;;;;;3.65;1.60;;;;;;;52.72;6.75;98724.44;10439987;28;20056;-77
2023/09/05 07:57:09;;;;;;;4.75;1.65;;;;;;;53.76;6.04;98735.75;10427204;28;20052;-77
2023/09/05 08:02:30;;;;;;;3.00;1.13;;;;;;;54.10;5.92;98743.03;10467880;28;20052;-77
2023/09/05 08:07:51;;;;;;;3.72;1.30;;;;;;;53.73;6.42;98731.56;10472345;28;20036;-77
2023/09/05 08:13:14;;;;;;;3.28;1.40;;;;;;;53.34;6.41;98729.19;10457225;28;20079;-77
2023/09/05 08:18:36;;;;;;;2.40;1.25;;;;;;;53.81;5.79;98718.88;10471492;28;20045;-77
2023/09/05 08:23:57;;;;;;;3.17;1.50;;;;;;;52.90;6.05;98701.22;10484832;28;20044;-77
2023/09/05 08:29:19;;;;;;;3.80;1.48;;;;;;;52.15;6.64;98714.63;10471061;28;20047;-77
2023/09/05 08:34:40;;;;;;;2.60;1.15;;;;;;;52.96;6.73;98715.56;10470583;28;20048;-76
2023/09/05 08:40:03;;;;;;;3.13;1.20;;;;;;;54.62;5.17;98715.56;10470612;28;20383;-77
2023/09/05 08:45:24;;;;;;;2.25;1.50;;;;;;;53.21;6.09;98713.34;10472068;28;20037;-74
2023/09/05 08:50:45;;;;;;;2.95;1.40;;;;;;;52.19;6.44;98710.56;10476535;28;20120;-75
2023/09/05 08:56:09;;;;;;;2.80;1.30;;;;;;;51.73;6.58;98698.16;10483526;28;20078;-71
2023/09/05 09:01:30;;;;;;;6.47;1.50;;;;;;;51.47;7.35;98689.25;10498107;28;20132;-70
2023/09/05 09:06:57;;;;;;;4.25;2.00;;;;;;;51.03;6.88;98694.38;10469742;28;20049;-72
2023/09/05 09:12:31;;;;;;;2.72;1.45;;;;;;;50.73;7.30;98687.97;10483212;28;20036;-73
2023/09/05 09:17:54;;;;;;;5.05;1.67;;;;;;;52.24;6.08;98679.56;10471252;28;20072;-73
2023/09/05 09:23:35;;;;;;;2.90;1.58;;;;;;;52.71;5.73;98680.63;10438015;28;20059;-75
2023/09/05 09:28:56;;;;;;;5.05;1.85;;;;;;;52.15;6.00;98678.88;10438342;28;20477;-72
2023/09/05 09:34:20;;;;;;;4.88;1.40;;;;;;;51.76;5.96;98675.63;10441252;28;20044;-72
2023/09/05 09:39:41;;;;;;;3.30;1.20;;;;;;;47.67;7.98;98663.56;10413466;28;20052;-71
2023/09/05 09:45:05;;;;;;;4.38;1.00;;;;;;;47.60;9.03;98666.25;10444575;28;20056;-73
2023/09/05 09:50:26;;;;;;;2.10;0.90;;;;;;;47.41;8.16;98659.47;10455691;28;20073;-83
2023/09/05 09:55:47;;;;;;;1.73;1.00;;;;;;;50.07;7.28;98656.91;10417263;28;20540;-81
2023/09/05 10:01:11;;;;;;;1.83;0.75;;;;;;;49.32;7.69;98648.63;10385676;28;20061;-80
2023/09/05 10:06:32;;;;;;;1.55;0.90;;;;;;;47.71;7.95;98660.34;10390962;28;20083;-82
2023/09/05 10:11:54;;;;;;;1.60;0.90;;;;;;;49.15;7.43;98660.34;10393176;28;20045;-80
2023/09/05 10:17:15;;;;;;;1.40;0.93;;;;;;;48.52;7.37;98641.28;10406832;28;20398;-79
2023/09/05 10:22:39;;;;;;;1.83;1.00;;;;;;;46.39;8.80;98625.50;10393779;28;20063;-81
2023/09/05 10:28:00;;;;;;;2.28;1.20;;;;;;;46.00;9.46;98633.16;10433119;28;20053;-81
2023/09/05 10:33:37;;;;;;;1.60;1.00;;;;;;;48.53;8.12;98630.84;10414187;28;20408;-80
2023/09/05 10:38:58;;;;;;;2.15;0.93;;;;;;;48.80;7.62;98636.25;10411148;28;20038;-78
2023/09/05 10:44:23;;;;;;;1.60;1.02;;;;;;;46.47;8.95;98621.34;10427202;28;20116;-76
2023/09/05 10:49:45;;;;;;;1.90;1.02;;;;;;;44.91;9.80;98617.59;10420945;28;20050;-75
2023/09/05 10:55:25;;;;;;;2.20;0.98;;;;;;;45.69;9.51;98613.72;10416219;28;20056;-75
2023/09/05 11:00:48;;;;;;;3.08;1.00;;;;;;;47.36;8.71;98596.97;10454502;28;20411;-79
2023/09/05 11:06:16;;;;;;;1.92;1.23;;;;;;;47.30;8.95;98586.28;10432407;28;20521;-80
2023/09/05 11:11:45;;;;;;;2.22;0.98;;;;;;;47.93;8.54;98566.38;10425940;28;20045;-80
2023/09/05 11:17:14;;;;;;;1.85;1.00;;;;;;;46.96;9.16;98579.75;10431951;28;20053;-73
2023/09/05 11:22:35;;;;;;;2.72;0.80;;;;;;;48.86;8.36;98573.59;10444385;28;20483;-72
2023/09/05 11:28:00;;;;;;;2.15;1.17;;;;;;;50.77;6.94;98569.56;10457025;28;20061;-72
2023/09/05 11:33:21;;;;;;;2.42;1.00;;;;;;;49.70;7.33;98564.16;10442587;28;20041;-73
2023/09/05 11:38:46;;;;;;;3.15;1.20;;;;;;;47.74;8.30;98554.41;10442598;28;20047;-71
2023/09/05 11:44:07;;;;;;;2.08;1.35;;;;;;;44.71;8.93;98566.47;10427719;28;20099;-73
2023/09/05 11:49:28;;;;;;;2.17;1.50;;;;;;;40.04;12.12;98547.06;10441105;28;20037;-72
2023/09/05 11:54:50;;;;;;;3.60;1.70;;;;;;;36.42;15.88;98549.44;10442780;28;20033;-71
2023/09/05 12:00:13;;;;;;;3.30;1.88;;;;;;;33.85;18.72;98542.38;10430781;28;20048;-70
2023/09/05 12:05:35;;;;;;;3.53;2.08;;;;;;;32.45;20.48;98540.88;10444063;28;20056;-70
2023/09/05 12:10:58;;;;;;;3.58;2.20;;;;;;;31.69;22.28;98557.88;10430416;28;20123;-70
2023/09/05 12:16:19;;;;;;;3.80;1.80;;;;;;;31.03;22.89;98551.53;10458856;28;20102;-70
2023/09/05 12:21:44;;;;;;;3.75;2.00;;;;;;;30.98;23.18;98555.13;10458341;28;20045;-70
2023/09/05 12:27:05;;;;;;;2.80;1.67;;;;;;;29.88;24.54;98529.78;10429616;28;20120;-70
2023/09/05 12:32:26;;;;;;;3.57;2.00;;;;;;;29.53;25.80;98528.19;10458100;28;20052;-70
2023/09/05 12:37:48;;;;;;;4.15;1.95;;;;;;;29.90;25.54;98523.28;10428580;28;20071;-69
2023/09/05 12:43:12;;;;;;;4.75;2.17;;;;;;;29.18;26.39;98528.00;10440677;28;20048;-70
2023/09/05 12:48:32;;;;;;;5.75;1.90;;;;;;;28.37;27.32;98527.34;10426992;28;20106;-70
2023/09/05 12:53:54;;;;;;;2.72;1.95;;;;;;;28.34;27.28;98517.28;10439684;28;20041;-70
2023/09/05 12:59:16;;;;;;;3.43;2.13;;;;;;;28.35;27.71;98513.00;10425375;28;20037;-71
2023/09/05 13:04:37;;;;;;;4.03;2.17;;;;;;;27.94;27.88;98498.22;10426215;28;20053;-70
2023/09/05 13:09:58;;;;;;;3.00;2.00;;;;;;;27.61;29.04;98509.31;10427666;28;20048;-71
2023/09/05 13:15:19;;;;;;;5.30;2.15;;;;;;;27.92;28.36;98501.06;10456419;28;20041;-71
2023/09/05 13:20:40;;;;;;;3.47;2.33;;;;;;;27.91;28.02;98500.34;10456380;28;20068;-70
2023/09/05 13:26:03;;;;;;;3.80;1.83;;;;;;;27.82;28.53;98490.22;10456207;28;20076;-69
2023/09/05 13:31:30;;;;;;;2.83;1.77;;;;;;;28.32;28.57;98483.56;10442707;28;20381;-70
2023/09/05 13:36:51;;;;;;;3.88;2.50;;;;;;;28.50;27.91;98477.25;10456004;28;20041;-69
2023/09/05 13:42:15;;;;;;;2.72;1.90;;;;;;;28.21;27.88;98476.97;10413337;28;20517;-72
2023/09/05 13:47:39;;;;;;;5.55;2.28;;;;;;;27.90;28.28;98478.84;10414899;28;20036;-67
2023/09/05 13:53:01;;;;;;;3.58;2.20;;;;;;;27.62;28.77;98472.75;10441274;28;20041;-67
2023/09/05 13:58:21;;;;;;;3.22;2.22;;;;;;;27.97;28.97;98468.13;10440795;28;20467;-67
2023/09/05 14:03:42;;;;;;;3.25;2.30;;;;;;;28.27;28.42;98464.09;10440963;28;20049;-67
2023/09/05 14:09:03;;;;;;;3.10;2.22;;;;;;;28.44;28.11;98468.56;10412677;28;20053;-66
2023/09/05 14:14:24;;;;;;;3.43;2.33;;;;;;;28.15;28.42;98453.94;10445154;28;20063;-67
2023/09/05 14:19:45;;;;;;;3.95;2.38;;;;;;;27.95;28.44;98459.50;10448251;28;20056;-74
2023/09/05 14:25:06;;;;;;;5.57;2.13;;;;;;;27.77;28.63;98462.91;10448184;28;20367;-70
2023/09/05 14:30:28;;;;;;;4.10;2.42;;;;;;;27.65;29.34;98460.63;10434382;28;20049;-77
2023/09/05 14:35:49;;;;;;;4.00;2.00;;;;;;;27.17;29.48;98460.03;10434661;28;20045;-77
2023/09/05 14:41:10;;;;;;;3.42;2.42;;;;;;;26.91;29.57;98455.34;10447281;28;20044;-78
2023/09/05 14:46:34;;;;;;;5.15;2.38;;;;;;;26.81;30.20;98455.19;10433158;28;20049;-75
2023/09/05 14:51:55;;;;;;;3.90;2.30;;;;;;;26.65;30.21;98449.25;10411595;28;20041;-79
2023/09/05 14:57:18;;;;;;;3.15;1.83;;;;;;;26.44;29.52;98445.34;10425586;28;20033;-76
2023/09/05 15:02:39;;;;;;;3.13;1.92;;;;;;;26.46;29.76;98446.13;10412814;28;20061;-73
2023/09/05 15:08:02;;;;;;;2.47;1.75;;;;;;;26.42;29.46;98443.16;10398582;28;20458;-83
2023/09/05 15:13:25;;;;;;;2.55;1.85;;;;;;;26.32;29.60;98443.00;10407656;28;20133;-78
2023/09/05 15:18:46;;;;;;;3.85;2.08;;;;;;;26.22;29.65;98431.38;10405307;28;20046;-79
2023/09/05 15:24:10;;;;;;;4.40;1.95;;;;;;;25.81;30.40;98427.09;10403619;28;20048;-74
2023/09/05 15:29:31;;;;;;;6.57;2.10;;;;;;;25.80;30.36;98420.66;10390874;28;20038;-71
2023/09/05 15:34:52;;;;;;;2.78;1.80;;;;;;;25.57;30.39;98424.47;10403759;28;20149;-74
2023/09/05 15:40:14;;;;;;;3.58;1.70;;;;;;;25.34;31.10;98438.34;10420081;28;20041;-73
2023/09/05 15:45:35;;;;;;;3.85;2.20;;;;;;;25.19;31.23;98435.88;10417604;28;20056;-76
2023/09/05 15:50:56;;;;;;;4.95;2.13;;;;;;;25.16;31.82;98429.41;10430670;28;20090;-72
2023/09/05 15:56:17;;;;;;;4.32;2.15;;;;;;;25.10;33.01;98432.88;10416523;28;20048;-75
2023/09/05 16:01:41;;;;;;;3.75;2.03;;;;;;;25.01;32.97;98416.94;10411568;28;20049;-72
2023/09/05 16:07:03;;;;;;;3.50;2.10;;;;;;;24.86;33.52;98411.59;10443682;28;20045;-77
2023/09/05 16:12:24;;;;;;;4.50;2.20;;;;;;;24.79;33.97;98417.16;10429363;28;20049;-76
2023/09/05 16:17:46;;;;;;;4.70;1.92;;;;;;;24.67;34.39;98416.91;10443748;28;20044;-83
2023/09/05 16:23:07;;;;;;;4.72;2.40;;;;;;;24.50;35.02;98407.25;10429573;28;20064;-73
2023/09/05 16:28:28;;;;;;;3.28;2.08;;;;;;;24.31;35.82;98404.63;10432470;28;20048;-71
2023/09/05 16:33:49;;;;;;;3.28;2.10;;;;;;;24.13;36.27;98402.78;10429258;28;20075;-71
2023/09/05 16:39:10;;;;;;;4.93;2.10;;;;;;;23.98;36.37;98406.69;10415353;28;20060;-69
2023/09/05 16:44:30;;;;;;;2.80;2.10;;;;;;;23.83;36.54;98405.59;10428697;28;20048;-70
2023/09/05 16:49:53;;;;;;;2.60;1.90;;;;;;;23.73;36.70;98407.47;10442623;28;20403;-70
2023/09/05 16:55:14;;;;;;;3.70;2.20;;;;;;;23.53;37.39;98408.34;10429059;28;20068;-70
2023/09/05 17:00:38;;;;;;;4.57;2.20;;;;;;;23.36;37.63;98390.09;10442157;28;20479;-70
2023/09/05 17:06:00;;;;;;;6.18;2.35;;;;;;;23.20;38.23;98409.59;10428152;28;20081;-70
2023/09/05 17:11:21;;;;;;;4.15;2.10;;;;;;;23.03;38.25;98410.50;10414326;28;20076;-70
2023/09/05 17:16:42;;;;;;;6.32;2.38;;;;;;;22.81;39.13;98405.59;10427918;28;20064;-71
2023/09/05 17:22:03;;;;;;;3.80;2.40;;;;;;;22.65;39.53;98407.94;10441938;28;20431;-70
2023/09/05 17:27:23;;;;;;;4.53;2.22;;;;;;;22.48;40.47;98403.88;10441567;28;20129;-70
2023/09/05 17:32:44;;;;;;;4.70;2.33;;;;;;;22.34;40.34;98414.81;10427531;28;20071;-69
2023/09/05 17:38:05;;;;;;;4.05;2.17;;;;;;;22.18;40.30;98417.13;10427409;28;20053;-70
2023/09/05 17:43:26;;;;;;;5.55;2.53;;;;;;;22.02;40.80;98413.75;10427366;28;20061;-76
2023/09/05 17:48:47;;;;;;;4.53;2.70;;;;;;;21.82;41.28;98420.22;10440072;28;20057;-74
2023/09/05 17:54:08;;;;;;;3.78;2.58;;;;;;;21.66;41.58;98411.84;10440724;28;20451;-73
2023/09/05 17:59:29;;;;;;;4.65;2.83;;;;;;;21.51;42.27;98414.84;10406414;28;20116;-77
2023/09/05 18:04:50;;;;;;;5.20;2.42;;;;;;;21.42;42.67;98430.88;10386157;28;20077;-76
2023/09/05 18:10:12;;;;;;;6.30;2.35;;;;;;;21.29;42.56;98432.53;10399678;28;20049;-79
2023/09/05 18:15:33;;;;;;;4.38;2.42;;;;;;;21.19;43.44;98445.63;10399705;28;20072;-76
2023/09/05 18:20:53;;;;;;;5.93;2.42;;;;;;;21.04;43.45;98438.69;10399123;28;20048;-75
2023/09/05 18:26:14;;;;;;;4.25;2.97;;;;;;;20.89;43.37;98445.94;10399482;28;20057;-75
2023/09/05 18:31:35;;;;;;;6.95;3.08;;;;;;;20.73;44.09;98440.38;10385636;28;20073;-75
2023/09/05 18:36:57;;;;;;;6.00;3.10;;;;;;;20.58;44.65;98450.44;10385463;28;20045;-77
2023/09/05 18:42:17;;;;;;;5.28;3.08;;;;;;;20.39;44.70;98450.34;10412350;28;20045;-75
2023/09/05 18:47:39;;;;;;;4.43;2.63;;;;;;;20.16;45.56;98454.34;10399054;28;20056;-74
2023/09/05 18:53:02;;;;;;;5.10;2.58;;;;;;;20.01;45.61;98459.44;10385395;28;20065;-74
2023/09/05 18:58:23;;;;;;;6.32;2.95;;;;;;;19.86;46.45;98453.81;10372525;28;20069;-77
2023/09/05 19:03:45;;;;;;;7.38;2.88;;;;;;;19.66;46.41;98451.59;10413973;28;20080;-78
2023/09/05 19:09:11;;;;;;;4.82;3.08;;;;;;;19.41;47.14;98458.28;10430075;28;20056;-82
2023/09/05 19:14:32;;;;;;;4.47;2.80;;;;;;;19.30;47.96;98456.38;10439173;28;20044;-82
2023/09/05 19:19:53;;;;;;;6.75;2.65;;;;;;;19.20;48.03;98460.81;10431537;28;20048;-82
2023/09/05 19:25:14;;;;;;;5.50;3.13;;;;;;;19.12;48.56;98464.03;10397152;28;20395;-82
2023/09/05 19:30:35;;;;;;;5.45;2.70;;;;;;;19.04;48.81;98467.22;10410254;28;20044;-81
2023/09/05 19:35:57;;;;;;;6.57;3.15;;;;;;;18.98;49.07;98457.72;10424372;28;20045;-82
2023/09/05 19:41:18;;;;;;;4.90;3.22;;;;;;;18.84;49.74;98455.72;10399891;28;20438;-82
2023/09/05 19:46:39;;;;;;;6.68;3.05;;;;;;;18.77;50.08;98462.44;10418082;28;20060;-81
2023/09/05 19:52:02;;;;;;;6.55;2.80;;;;;;;18.62;50.66;98471.59;10445526;28;20075;-83
2023/09/05 19:57:22;;;;;;;5.33;3.80;;;;;;;18.52;50.83;98459.78;10431819;28;20063;-82
2023/09/05 20:02:43;;;;;;;9.73;3.65;;;;;;;18.41;51.28;98461.41;10444572;28;20084;-79
2023/09/05 20:08:04;;;;;;;8.88;3.42;;;;;;;18.36;51.46;98453.38;10430968;28;20060;-81
2023/09/05 20:13:25;;;;;;;6.40;3.35;;;;;;;18.32;51.79;98465.22;10430361;28;20057;-81
2023/09/05 20:18:50;;;;;;;6.72;2.95;;;;;;;18.30;52.33;98462.28;10416702;28;20048;-79
2023/09/05 20:24:15;;;;;;;7.35;3.30;;;;;;;18.24;52.24;98462.75;10431098;28;20033;-79
2023/09/05 20:29:36;;;;;;;10.65;3.72;;;;;;;18.15;52.66;98468.63;10416721;28;20041;-79
2023/09/05 20:34:57;;;;;;;6.05;3.25;;;;;;;18.07;53.13;98468.22;10415762;28;20052;-80
2023/09/05 20:40:18;;;;;;;9.00;3.30;;;;;;;18.06;53.34;98469.59;10429765;28;20095;-81
2023/09/05 20:45:39;;;;;;;8.23;3.60;;;;;;;18.01;53.54;98469.38;10415368;28;20037;-81
2023/09/05 20:51:00;;;;;;;5.40;3.50;;;;;;;17.96;53.62;98469.81;10428340;28;20048;-84
2023/09/05 20:56:21;;;;;;;7.55;3.70;;;;;;;17.88;53.98;98470.13;10401536;28;20045;-82
2023/09/05 21:01:42;;;;;;;5.68;3.50;;;;;;;17.82;54.26;98469.09;10442567;28;20467;-82
2023/09/05 21:07:03;;;;;;;6.60;3.20;;;;;;;17.76;54.24;98463.13;10414763;28;20090;-82
2023/09/05 21:12:24;;;;;;;7.07;3.78;;;;;;;17.73;54.23;98470.75;10428662;28;20049;-81
2023/09/05 21:17:46;;;;;;;6.50;3.10;;;;;;;17.73;54.42;98460.19;10442010;28;20068;-82
2023/09/05 21:23:08;;;;;;;8.00;4.33;;;;;;;17.75;54.32;98465.22;10441210;28;20458;-81
2023/09/05 21:28:30;;;;;;;5.55;3.38;;;;;;;17.74;54.22;98460.94;10428021;28;20475;-78
2023/09/05 21:33:50;;;;;;;7.70;4.22;;;;;;;17.72;54.32;98463.66;10441575;28;20041;-81
2023/09/05 21:39:12;;;;;;;8.30;3.80;;;;;;;17.65;54.50;98465.41;10428193;28;20049;-80
2023/09/05 21:44:32;;;;;;;8.32;3.50;;;;;;;17.50;54.49;98466.03;10410174;28;20122;-83
2023/09/05 21:49:53;;;;;;;6.20;3.20;;;;;;;17.36;55.03;98468.84;10413365;28;20048;-82
2023/09/05 21:55:14;;;;;;;6.60;3.33;;;;;;;17.22;55.47;98465.28;10413696;28;20399;-84
2023/09/05 22:00:41;;;;;;;6.78;3.80;;;;;;;17.12;55.69;98467.56;10427546;28;20120;-83
2023/09/05 22:06:02;;;;;;;8.23;3.60;;;;;;;17.04;56.21;98473.50;10454606;28;20060;-82
2023/09/05 22:11:23;;;;;;;6.65;3.60;;;;;;;17.04;56.08;98476.31;10413124;28;20045;-82
2023/09/05 22:16:44;;;;;;;7.45;3.97;;;;;;;17.00;56.05;98478.22;10426838;28;20049;-83
2023/09/05 22:22:05;;;;;;;6.90;3.20;;;;;;;16.83;56.49;98479.41;10413598;28;20045;-83
2023/09/05 22:27:27;;;;;;;6.40;3.20;;;;;;;16.72;56.63;98478.13;10412756;28;20037;-83
2023/09/05 22:32:48;;;;;;;7.47;3.65;;;;;;;16.66;56.65;98477.75;10413973;28;20048;-84
2023/09/05 22:38:09;;;;;;;4.93;3.17;;;;;;;16.64;56.81;98477.66;10434173;28;20041;-83
2023/09/05 22:43:30;;;;;;;6.68;3.85;;;;;;;16.67;56.94;98479.22;10434511;28;20072;-82
2023/09/05 22:48:50;;;;;;;5.93;2.72;;;;;;;16.72;56.53;98471.75;10419993;28;20064;-83
2023/09/05 22:54:11;;;;;;;5.38;3.03;;;;;;;16.72;56.36;98466.84;10447969;28;20048;-82
2023/09/05 22:59:32;;;;;;;3.67;2.55;;;;;;;16.70;56.53;98475.19;10447294;28;20098;-82
2023/09/05 23:04:53;;;;;;;4.63;2.67;;;;;;;16.65;56.50;98465.00;10433228;28;20114;-81
2023/09/05 23:10:16;;;;;;;5.78;2.70;;;;;;;16.61;56.36;98473.25;10447097;28;20065;-82
2023/09/05 23:15:37;;;;;;;4.55;2.65;;;;;;;16.62;56.40;98474.72;10433677;28;20079;-84
2023/09/05 23:20:58;;;;;;;4.07;2.42;;;;;;;16.65;56.31;98473.47;10433147;28;20071;-83
2023/09/05 23:26:19;;;;;;;4.03;2.33;;;;;;;16.67;56.31;98470.75;10432540;28;20364;-81
2023/09/05 23:31:40;;;;;;;5.82;2.22;;;;;;;16.69;55.85;98470.88;10432353;28;20072;-81
2023/09/05 23:37:00;;;;;;;3.53;2.20;;;;;;;16.68;55.94;98469.44;10432918;28;20071;-83
2023/09/05 23:42:21;;;;;;;4.60;2.42;;;;;;;16.70;55.81;98475.19;10431300;28;20048;-81
2023/09/05 23:47:47;;;;;;;10.68;2.63;;;;;;;16.68;55.70;98469.44;10431153;28;20509;-83
2023/09/05 23:53:08;;;;;;;3.70;2.33;;;;;;;16.64;55.61;98472.00;10432157;28;20392;-83
2023/09/05 23:58:29;;;;;;;5.65;2.40;;;;;;;16.58;55.33;98457.56;10431677;28;20049;-83
